Airfield :
LOGIN :

Register | Disclaimer

   EN    FR    IT 

 










Legend :    VFR   Marginal VFR   IFR   Intensive IFR   Very Intensive IFR
Visi :
Ceiling :
>= 8 km
>= 3000ft
5 to 8 km
1000 to 3000 ft
1500m to 5 km
500 to 1000 ft
800 to 1500m
200 to 500 ft
< 800m
< 200 ft
Symbols :   Thunderstorms  Fog  Heavy snow  Heavy precipitations  Wind > 20 kt
SIGMETs :     Misc.  Thunderstorms  Icing  Turbulence  Mountain Waves  Volcanic Ashes







- Airport Elevation : 278 ft
- IATA code : RJK


LDRI - Rijeka

CURRENT METAR :
  • 161930Z 36005KT 320V030 9999 -RA SCT040 23/21 Q1010

EXPIRED METARs :
  • 161900Z 33007KT 9999 -RA BKN040 23/20 Q1010
  • 161830Z 32006KT 9999 VCTS FEW033CB SCT040 24/19 Q1010
  • 161800Z 26004KT CAVOK 25/20 Q1010
  • 161730Z 30003KT 260V340 CAVOK 26/19 Q1010
  • 161700Z 35005KT 9999 FEW040 26/18 Q1010

TAF TAF LDRI
Valid from the 16 at 18:00 until the 17 at 18:00 UTC


161725Z 1618/1718 VRB02KT 9999 FEW040 TX27/1713Z TN18/1703Z
PROB40
TEMPO 1618/1706 3000 TSRA SCT030CB BKN040
TEMPO 1712/1718 32006KT
PROB30
TEMPO 1712/1718 TSRA FEW030CB
No reported NOTAMs for that airfield.
3 SIGMETs reported for the Zagreb FIR (LDZO) :
 
SIGMET 1  cancelation
LDZO SIGMET 3 VALID 161845/162000 LDZA
LDZO ZAGREB FIR CNL SIGMET 1 161812/162000=
Embedded thunderstorms
LDZO SIGMET 2 VALID 161845/162100 LDZA
LDZO ZAGREB FIR EMBD TS OBS WI N4456 E01301 - N4457 E01411 - N4343 E01518 - N4337 E01414 - N4456 E01301 TOP FL390 MOV ENE 10KT NC=
SIGMET 1  CANCELED :
Embedded thunderstorms
LDZO SIGMET 1 VALID 161812/162000 LDZA
LDZO ZAGREB FIR EMBD TS OBS WI N4456 E01301 - N4502 E01324 - N4400 E01430 - N4338 E01401 - N4456 E01301 TOP FL390 STNR NC=



MET'MAP, your aeronautical weather chart ! - Copyright ORBIFLY December 2007 - Disclaimer

ORBIFLY MET'MAP TEAM :

Programming & Development : Alexandra Zaïnal
Concept & Development : Baudouin d'Aumeries
Co-Development & Prog : Marc-Olivier Méhu
Technical & hardware support : Manuel Goepfert

Contact : metmap@orbifly.com




SOURCES & CREDITS :

   NOAA